Buoy 13526

sailwx.info

Track history (hours):
 
Tides and Currents Weather Stations Pressure Air Temp Water Temp Dewpoint Dewpoint Depression Visibility Wind Speed Wind Dir Waves Ship Positions

Drifting buoy 13526

Last reported at 2017-Mar-29 07:29 UTC. Time now 2017-Mar-29 09:25 UTC.
Position N 24°39' W 071°35'.

Water temperature 24.6 ° C

Date/timePositionNaut miles runAvg speedWind from/ knotsBaromVisibWave heightAir tempDewpointWater temp
2017-Mar-29 07:29N 24°39' W 071°35'116.2 24.6
2017-Mar-29 07:26N 24°40' W 071°36'320.9 24.6
2017-Mar-29 07:18N 24°40' W 071°33'0 0.0 24.6
2017-Mar-29 03:39N 24°40' W 071°33'0 0.0 24.6
2017-Mar-29 02:50N 24°40' W 071°33'0 0.0 24.6
2017-Mar-29 02:45N 24°40' W 071°33'1 1.1 24.6
2017-Mar-29 02:02N 24°41' W 071°34'1 8.1 24.6
2017-Mar-29 01:56N 24°41' W 071°33'0 0.0 24.6
2017-Mar-29 01:05N 24°41' W 071°33'1 9.0 24.6
2017-Mar-29 01:01N 24°41' W 071°33'0 0.0 24.6
2017-Mar-29 00:18N 24°41' W 071°33'0 0.0 24.6
2017-Mar-29 00:15N 24°41' W 071°33'0 0.0 24.6
2017-Mar-29 00:06N 24°41' W 071°33'1 2.9 24.6
2017-Mar-28 23:49N 24°41' W 071°34'0 0.0 24.6
2017-Mar-28 23:44N 24°41' W 071°34'1 0.5 24.6
2017-Mar-28 22:38N 24°41' W 071°33'1 4.7 24.6
2017-Mar-28 22:31N 24°41' W 071°34'1 9.7 24.6
2017-Mar-28 22:26N 24°42' W 071°34'0 0.0 24.6
2017-Mar-28 22:06N 24°42' W 071°34'0 0.0 24.6
2017-Mar-28 22:04N 24°42' W 071°34'1 0.5 24.6
2017-Mar-28 20:52N 24°41' W 071°34'0 0.0 24.5
2017-Mar-28 20:37N 24°41' W 071°34'0 0.0 24.5
2017-Mar-28 18:57N 24°41' W 071°34'0 0.0 24.4
2017-Mar-28 18:50N 24°41' W 071°34'0 0.0 24.4
2017-Mar-28 15:37N 24°41' W 071°34'0 0.0 24.2
2017-Mar-28 15:32N 24°41' W 071°34'1 1.5 24.2
2017-Mar-28 14:49N 24°41' W 071°33'1 5.5 24.2
2017-Mar-28 14:43N 24°41' W 071°32'0 0.0 24.2
2017-Mar-28 13:52N 24°41' W 071°32'1 1.1 24.2
2017-Mar-28 13:06N 24°41' W 071°32'0 0.0 24.2
2017-Mar-28 13:02N 24°41' W 071°32'1 8.1 24.2
2017-Mar-28 12:56N 24°41' W 071°31'1 6.5 24.2
2017-Mar-28 12:51N 24°41' W 071°31'124.9 24.2
2017-Mar-28 12:48N 24°41' W 071°29'0 0.0 24.2
2017-Mar-28 11:28N 24°41' W 071°29'0 0.0 24.1
2017-Mar-28 11:25N 24°41' W 071°29'0 0.0 24.1
2017-Mar-28 11:22N 24°41' W 071°29'1 4.5 24.1
2017-Mar-28 11:14N 24°40' W 071°29'2 1.2 24.1
2017-Mar-28 09:50N 24°41' W 071°28'0 0.0 24.1
2017-Mar-28 09:47N 24°41' W 071°28'0 0.0 24.1
2017-Mar-28 09:42N 24°41' W 071°28'1 1.4 24.1
2017-Mar-28 09:19N 24°41' W 071°27'0 0.0 24.1
2017-Mar-28 09:16N 24°41' W 071°27'232.7 24.1
2017-Mar-28 09:13N 24°41' W 071°25'0 0.0 24.1
2017-Mar-28 07:37N 24°41' W 071°25'4 0.8 24.1
2017-Mar-28 03:05N 24°43' W 071°22'1 1.7 24.1
2017-Mar-28 02:22N 24°44' W 071°21'1 4.7 24.1
2017-Mar-28 02:15N 24°44' W 071°20'0 0.0 24.1
2017-Mar-28 01:30N 24°44' W 071°20'1 5.4 24.1
2017-Mar-28 01:24N 24°44' W 071°21'1 1.1 24.1
2017-Mar-28 00:41N 24°44' W 071°20'112.0 24.1
2017-Mar-28 00:38N 24°45' W 071°20'0 0.0 24.1
2017-Mar-28 00:26N 24°45' W 071°20'0 0.0 24.1
2017-Mar-28 00:20N 24°45' W 071°20'1 6.1 24.1
2017-Mar-28 00:12N 24°46' W 071°20'0 0.0 24.1
2017-Mar-27 23:03N 24°46' W 071°20'1 9.7 24.1
2017-Mar-27 22:58N 24°45' W 071°19'1 6.9 24.1
2017-Mar-27 22:51N 24°46' W 071°20'0 0.0 24.1
2017-Mar-27 22:43N 24°46' W 071°20'1 5.4 24.1
2017-Mar-27 22:34N 24°46' W 071°19'0 0.0 24.1
2017-Mar-27 21:22N 24°46' W 071°19'1 4.1 24.2
2017-Mar-27 21:14N 24°46' W 071°19'0 0.0 24.2
2017-Mar-27 20:50N 24°46' W 071°19'0 0.0 24.2
2017-Mar-27 20:46N 24°46' W 071°19'1 0.5 24.2
2017-Mar-27 19:05N 24°46' W 071°18'174.6 24.2
2017-Mar-27 19:04N 24°45' W 071°17'0 0.0 24.2
2017-Mar-27 15:55N 24°45' W 071°17'0 0.0 24.1
2017-Mar-27 15:52N 24°45' W 071°17'2 2.1 24.1
2017-Mar-27 15:05N 24°44' W 071°16'0 0.0 24.1
2017-Mar-27 14:15N 24°44' W 071°16'1 3.6 24.1
2017-Mar-27 14:06N 24°44' W 071°15'0 0.0 24.1
2017-Mar-27 13:29N 24°44' W 071°15'1 8.1 24.1
2017-Mar-27 13:23N 24°43' W 071°14'0 0.0 24.1
2017-Mar-27 13:06N 24°43' W 071°14'110.9 24.1
2017-Mar-27 13:00N 24°43' W 071°13'0 0.0 24.1
2017-Mar-27 11:57N 24°43' W 071°13'0 0.0 24.1
2017-Mar-27 11:54N 24°43' W 071°13'0 0.0 24.1
2017-Mar-27 11:48N 24°43' W 071°13'1 1.2 24.1
2017-Mar-27 11:21N 24°43' W 071°13'114.9 24.1
2017-Mar-27 11:16N 24°43' W 071°11'0 0.0 24.1
2017-Mar-27 10:21N 24°43' W 071°11'0 0.0 24.1
2017-Mar-27 10:18N 24°43' W 071°11'0 0.0 24.1
2017-Mar-27 10:13N 24°43' W 071°11'1 4.7 24.1
2017-Mar-27 10:06N 24°43' W 071°11'1 6.5 24.1
2017-Mar-27 10:01N 24°43' W 071°10'1 1.2 24.1
2017-Mar-27 09:30N 24°43' W 071°10'222.6 24.1
2017-Mar-27 09:24N 24°43' W 071°08'0 0.0 24.1
2017-Mar-27 08:38N 24°43' W 071°08'0 0.0 24.2
2017-Mar-27 07:49N 24°43' W 071°08'767.8 24.2
2017-Mar-27 07:43N 24°44' W 071°01'0 0.0 24.2
2017-Mar-27 03:30N 24°44' W 071°01'112.0 24.2
2017-Mar-27 03:27N 24°44' W 071°01'137.3 24.2
2017-Mar-27 03:25N 24°44' W 070°59'0 0.0 24.2
2017-Mar-27 02:45N 24°44' W 070°59'0 0.0 24.2
2017-Mar-27 02:42N 24°44' W 070°59'1 1.5 24.2
2017-Mar-27 01:52N 24°45' W 070°58'0 0.0 24.2
2017-Mar-27 01:46N 24°45' W 070°58'110.9 24.2
2017-Mar-27 01:43N 24°45' W 070°58'0 0.0 24.2
2017-Mar-27 01:03N 24°45' W 070°58'1 9.7 24.1
2017-Mar-27 00:58N 24°46' W 070°57'0 0.0 24.1
2017-Mar-27 00:46N 24°46' W 070°57'0 0.0 24.1
2017-Mar-27 00:35N 24°46' W 070°57'110.9 24.1
2017-Mar-27 00:32N 24°46' W 070°56'0 0.0 24.1
2017-Mar-27 00:06N 24°46' W 070°56'1 0.9 24.1
2017-Mar-26 23:28N 24°46' W 070°56'1 1.5 24.1
2017-Mar-26 23:06N 24°46' W 070°55'1 2.6 24.1
2017-Mar-26 22:52N 24°46' W 070°55'121.8 24.1
2017-Mar-26 22:49N 24°46' W 070°54'0 0.0 24.1
2017-Mar-26 21:48N 24°46' W 070°54'1 1.8 24.1
2017-Mar-26 21:30N 24°46' W 070°53'1 1.1 24.1
2017-Mar-26 21:00N 24°46' W 070°53'0 0.0 24.1
2017-Mar-26 20:57N 24°46' W 070°53'2 1.0 24.1
2017-Mar-26 19:19N 24°46' W 070°51'349.8 24.1
2017-Mar-26 19:15N 24°47' W 070°47'0 0.0 24.1
2017-Mar-26 17:38N 24°47' W 070°47'0 0.0 24.0
2017-Mar-26 16:14N 24°47' W 070°47'1 0.7 24.0
2017-Mar-26 15:29N 24°47' W 070°47'110.9 24.0
2017-Mar-26 15:26N 24°47' W 070°46'1 0.7 24.0
2017-Mar-26 14:37N 24°47' W 070°46'0 0.0 23.9
2017-Mar-26 14:31N 24°47' W 070°46'0 0.0 23.9
2017-Mar-26 13:47N 24°47' W 070°46'1 1.6 23.9
2017-Mar-26 13:17N 24°47' W 070°45'1 8.2 23.9
2017-Mar-26 13:13N 24°47' W 070°44'1 1.9 23.9
2017-Mar-26 12:56N 24°47' W 070°45'1 7.2 23.9
2017-Mar-26 12:51N 24°48' W 070°45'148.6 23.9
2017-Mar-26 12:50N 24°47' W 070°44'0 0.0 23.9
2017-Mar-26 12:13N 24°47' W 070°44'1 1.3 23.9
2017-Mar-26 11:36N 24°48' W 070°44'0 0.0 23.9
2017-Mar-26 11:32N 24°48' W 070°44'113.1 23.9
2017-Mar-26 11:27N 24°48' W 070°43'0 0.0 23.9
2017-Mar-26 10:52N 24°48' W 070°43'0 0.0 23.9
2017-Mar-26 10:47N 24°48' W 070°43'0 0.0 23.9
2017-Mar-26 10:43N 24°48' W 070°43'0 0.0 23.9
2017-Mar-26 10:32N 24°48' W 070°43'2 2.5 23.9
2017-Mar-26 09:52N 24°48' W 070°41'0 0.0 23.9
2017-Mar-26 09:37N 24°48' W 070°41'0 0.0 23.9
2017-Mar-26 09:06N 24°48' W 070°41'124.3 23.9
2017-Mar-26 09:04N 24°49' W 070°40'0 0.0 23.9
2017-Mar-26 08:02N 24°49' W 070°40'543.3 23.9
2017-Mar-26 07:55N 24°50' W 070°35'0 0.0 23.9
2017-Mar-26 06:17N 24°50' W 070°35'0 0.0 23.9
2017-Mar-26 03:47N 24°50' W 070°35'0 0.0 23.9
2017-Mar-26 03:04N 24°50' W 070°35'1 6.5 23.8
2017-Mar-26 02:59N 24°50' W 070°34'0 0.0 23.8
2017-Mar-26 02:06N 24°50' W 070°34'137.3 23.9
2017-Mar-26 02:04N 24°50' W 070°33'0 0.0 23.9
2017-Mar-26 01:24N 24°50' W 070°33'1 5.1 23.9
2017-Mar-26 01:17N 24°51' W 070°33'0 0.0 23.9
2017-Mar-26 00:46N 24°51' W 070°33'1 1.9 23.9
2017-Mar-26 00:29N 24°51' W 070°32'1 8.2 23.9
2017-Mar-26 00:25N 24°51' W 070°32'1 1.4 23.9
2017-Mar-25 23:51N 24°52' W 070°31'1 4.1 23.8
2017-Mar-25 23:43N 24°52' W 070°32'0 0.0 23.8
2017-Mar-25 23:40N 24°52' W 070°32'0 0.0 23.8
2017-Mar-25 23:37N 24°52' W 070°32'1 1.1 23.8
2017-Mar-25 23:06N 24°52' W 070°31'116.3 23.8
2017-Mar-25 23:02N 24°52' W 070°30'0 0.0 23.8
2017-Mar-25 22:13N 24°52' W 070°30'0 0.0 23.9
2017-Mar-25 22:00N 24°52' W 070°30'1 1.9 23.9
2017-Mar-25 21:25N 24°52' W 070°29'1 2.6 23.9
2017-Mar-25 21:11N 24°51' W 070°29'2 1.4 23.9
2017-Mar-25 19:33N 24°52' W 070°26'0 0.0 23.9
2017-Mar-25 19:30N 24°52' W 070°26'341.8 23.9
2017-Mar-25 19:26N 24°52' W 070°23'0 0.0 23.9
2017-Mar-25 17:51N 24°52' W 070°23'224.3 24.0
2017-Mar-25 17:46N 24°53' W 070°22'0 0.0 24.0
2017-Mar-25 15:48N 24°53' W 070°22'1 6.5 24.1
2017-Mar-25 15:43N 24°53' W 070°21'0 0.0 24.1
2017-Mar-25 14:59N 24°53' W 070°21'1 6.1 24.0
2017-Mar-25 14:51N 24°54' W 070°20'1 0.8 24.0
2017-Mar-25 14:05N 24°53' W 070°20'124.9 24.0
2017-Mar-25 14:02N 24°54' W 070°19'0 0.0 24.0
2017-Mar-25 13:25N 24°54' W 070°19'0 0.0 24.0
2017-Mar-25 13:15N 24°54' W 070°19'1 1.3 24.0
2017-Mar-25 12:38N 24°55' W 070°19'1 1.3 24.0
2017-Mar-25 11:49N 24°55' W 070°17'1 4.5 23.9
2017-Mar-25 11:41N 24°55' W 070°17'0 0.0 23.9
2017-Mar-25 11:23N 24°55' W 070°17'110.9 23.9
2017-Mar-25 11:20N 24°55' W 070°17'0 0.0 23.9
2017-Mar-25 10:58N 24°55' W 070°17'1 0.9 23.9
2017-Mar-25 10:06N 24°56' W 070°16'116.2 23.9
2017-Mar-25 10:03N 24°55' W 070°16'0 0.0 23.9
2017-Mar-25 09:52N 24°55' W 070°16'0 0.0 23.9
2017-Mar-25 09:49N 24°55' W 070°16'0 0.0 23.9
2017-Mar-25 09:40N 24°55' W 070°16'1 6.5 23.9
2017-Mar-25 09:35N 24°55' W 070°15'2 1.7 23.9
2017-Mar-25 08:16N 24°55' W 070°13'1 3.3 23.9
2017-Mar-25 08:06N 24°55' W 070°12'1 0.5 23.9
2017-Mar-25 06:33N 24°56' W 070°13'339.2 23.9
2017-Mar-25 06:28N 24°56' W 070°09'1 0.2 23.9
2017-Mar-25 03:20N 24°56' W 070°08'0 0.0 23.9
2017-Mar-25 02:34N 24°56' W 070°08'1 4.7 23.9
2017-Mar-25 02:27N 24°56' W 070°09'1 1.6 23.9
2017-Mar-25 01:45N 24°56' W 070°08'1 6.5 23.8
2017-Mar-25 01:40N 24°56' W 070°07'1 0.9 23.8
2017-Mar-25 00:59N 24°55' W 070°07'0 0.0 23.8
2017-Mar-25 00:52N 24°55' W 070°07'1 5.4 23.8
2017-Mar-25 00:46N 24°55' W 070°07'1 1.0 23.8
2017-Mar-25 00:14N 24°55' W 070°06'0 0.0 23.8
2017-Mar-25 00:06N 24°55' W 070°06'1 1.3 23.8
2017-Mar-24 23:16N 24°55' W 070°05'112.0 23.9
2017-Mar-24 23:13N 24°55' W 070°05'0 0.0 23.9
2017-Mar-24 22:37N 24°55' W 070°05'0 0.0 23.9
2017-Mar-24 22:31N 24°55' W 070°05'2104.4 23.9
2017-Mar-24 22:30N 24°54' W 070°03'0 0.0 23.9
2017-Mar-24 22:27N 24°54' W 070°03'0 0.0 23.9
2017-Mar-24 21:38N 24°54' W 070°03'116.2 24.0
2017-Mar-24 21:35N 24°53' W 070°02'0 0.0 24.0
2017-Mar-24 21:22N 24°53' W 070°02'2 5.0 24.0
2017-Mar-24 20:56N 24°53' W 070°00'0 0.0 24.0
2017-Mar-24 20:52N 24°53' W 070°00'0 0.0 24.0
2017-Mar-24 19:41N 24°53' W 070°00'341.8 24.1
2017-Mar-24 19:37N 24°53' W 069°57'0 0.0 24.1
2017-Mar-24 18:03N 24°53' W 069°57'112.0 24.0
2017-Mar-24 18:00N 24°52' W 069°57'477.1 24.0
2017-Mar-24 17:57N 24°53' W 069°53'0 0.0 24.0
2017-Mar-24 15:19N 24°53' W 069°53'220.9 23.9
2017-Mar-24 15:14N 24°53' W 069°51'0 0.0 23.9
2017-Mar-24 14:33N 24°53' W 069°51'0 0.0 23.9
2017-Mar-24 14:30N 24°53' W 069°51'0 0.0 23.9
2017-Mar-24 14:25N 24°53' W 069°51'1 0.7 23.9
2017-Mar-24 13:36N 24°53' W 069°51'3178.5
2017-Mar-24 13:35N 24°54' W 069°48'0 0.0 23.9
2017-Mar-24 13:01N 24°54' W 069°48'0 0.0 23.9
2017-Mar-24 12:00N 24°54' W 069°48'0 0.0 23.8
2017-Mar-24 11:57N 24°54' W 069°48'1 4.5 23.8
2017-Mar-24 11:49N 24°53' W 069°48'1 2.9 23.8
2017-Mar-24 11:23N 24°54' W 069°47'1 0.8 23.7
2017-Mar-24 10:20N 24°55' W 069°46'0 0.0 23.6
2017-Mar-24 10:14N 24°55' W 069°46'1 8.2 23.6
2017-Mar-24 10:06N 24°55' W 069°45'0 0.0 23.6
2017-Mar-24 10:02N 24°55' W 069°45'0 0.0 23.6
2017-Mar-24 09:43N 24°55' W 069°45'224.5 23.6
2017-Mar-24 09:39N 24°55' W 069°43'0 0.0 23.6
2017-Mar-24 08:26N 24°55' W 069°43'0 0.0 23.6
2017-Mar-24 08:23N 24°55' W 069°43'110.9 23.6
2017-Mar-24 08:20N 24°55' W 069°43'232.7 23.6
2017-Mar-24 08:16N 24°55' W 069°40'0 0.0 23.6
2017-Mar-24 06:44N 24°55' W 069°40'1 6.5 23.7
2017-Mar-24 06:39N 24°55' W 069°41'6 1.6 23.6
2017-Mar-24 02:52N 24°55' W 069°34'1 8.2 23.7
2017-Mar-24 02:48N 24°55' W 069°35'2 3.1 23.7
2017-Mar-24 02:06N 24°55' W 069°32'0 0.0 23.7
2017-Mar-24 02:05N 24°55' W 069°32'1 6.5 23.7
2017-Mar-24 02:00N 24°55' W 069°32'1 1.2 23.7
2017-Mar-24 01:06N 24°55' W 069°31'0 0.0 23.7
2017-Mar-24 00:40N 24°55' W 069°31'1 2.1 23.7
2017-Mar-24 00:23N 24°54' W 069°31'2 2.5 23.7
2017-Mar-23 23:28N 24°55' W 069°28'110.9 23.7
2017-Mar-23 23:22N 24°55' W 069°27'0 0.0 23.7
2017-Mar-23 23:05N 24°55' W 069°27'1 4.0 23.7
2017-Mar-23 22:56N 24°55' W 069°27'3 2.5 23.7
2017-Mar-23 21:50N 24°55' W 069°24'112.0 23.8
2017-Mar-23 21:47N 24°56' W 069°24'110.9 23.8
2017-Mar-23 21:44N 24°56' W 069°23'0 0.0 23.8
2017-Mar-23 21:32N 24°56' W 069°23'0 0.0 23.8
2017-Mar-23 21:24N 24°56' W 069°23'0 0.0 23.8
2017-Mar-23 21:23N 24°56' W 069°23'320.9 23.8
2017-Mar-23 21:13N 24°57' W 069°20'0 0.0 23.8
2017-Mar-23 19:52N 24°57' W 069°20'1 9.7 23.9
2017-Mar-23 19:47N 24°58' W 069°19'3 1.8 23.9
2017-Mar-23 18:15N 24°58' W 069°16'657.4 23.9
2017-Mar-23 18:09N 25°01' W 069°11'0 0.0 23.9
2017-Mar-23 15:39N 25°01' W 069°11'1 9.7 23.8
2017-Mar-23 15:34N 25°02' W 069°10'0 0.0 23.8
2017-Mar-23 14:52N 25°02' W 069°10'0 0.0 23.8
2017-Mar-23 14:50N 25°02' W 069°10'232.4 23.8
2017-Mar-23 14:47N 25°03' W 069°09'0 0.0 23.8
2017-Mar-23 13:59N 25°03' W 069°09'0 0.0 23.7
2017-Mar-23 13:58N 25°03' W 069°09'2 2.9 23.7
2017-Mar-23 13:06N 25°04' W 069°07'0 0.0 23.7
2017-Mar-23 12:20N 25°04' W 069°07'1 2.3 23.7
2017-Mar-23 12:06N 25°04' W 069°06'1 2.4 23.7
2017-Mar-23 11:51N 25°05' W 069°06'0 0.0 23.7
2017-Mar-23 11:48N 25°05' W 069°06'2 1.5 23.7
2017-Mar-23 10:45N 25°06' W 069°05'0 0.0 23.7
2017-Mar-23 10:42N 25°06' W 069°05'1 7.2 23.7
2017-Mar-23 10:37N 25°05' W 069°05'1 7.2 23.7
2017-Mar-23 10:32N 25°06' W 069°05'0 0.0 23.7
2017-Mar-23 10:26N 25°06' W 069°05'1 2.4 23.7
2017-Mar-23 10:06N 25°07' W 069°04'112.4 23.7
2017-Mar-23 10:00N 25°07' W 069°03'0 0.0 23.7
2017-Mar-23 09:05N 25°07' W 069°03'112.0 23.7
2017-Mar-23 09:02N 25°07' W 069°03'116.2 23.7
2017-Mar-23 08:59N 25°07' W 069°02'0 0.0 23.7
2017-Mar-23 08:37N 25°07' W 069°02'0 0.0 23.7
2017-Mar-23 08:33N 25°07' W 069°02'2 1.0 23.7
2017-Mar-23 06:52N 25°08' W 069°01'5150.0 23.7
2017-Mar-23 06:50N 25°13' W 068°58'0 0.0 23.7
2017-Mar-23 03:14N 25°13' W 068°58'1 4.5 23.9
2017-Mar-23 03:06N 25°12' W 068°58'2 2.6 23.9
2017-Mar-23 02:28N 25°13' W 068°57'1 5.4 23.9
2017-Mar-23 02:19N 25°14' W 068°56'0 0.0 23.9
2017-Mar-23 01:33N 25°14' W 068°56'112.4 23.9
2017-Mar-23 01:27N 25°14' W 068°55'0 0.0 23.9
2017-Mar-23 00:45N 25°14' W 068°55'112.1 23.9
2017-Mar-23 00:41N 25°15' W 068°55'0 0.0 23.9
2017-Mar-22 23:50N 25°15' W 068°55'0 0.0 23.9
2017-Mar-22 23:44N 25°15' W 068°55'0 0.0 23.9
2017-Mar-22 23:41N 25°15' W 068°55'0 0.0 23.9
2017-Mar-22 23:35N 25°15' W 068°55'0 0.0 23.9
2017-Mar-22 23:27N 25°15' W 068°55'0 0.0 23.9
2017-Mar-22 23:22N 25°15' W 068°55'1 0.9 23.9
2017-Mar-22 22:03N 25°16' W 068°53'1 9.7 23.9
2017-Mar-22 21:58N 25°16' W 068°53'1 5.4 23.9
2017-Mar-22 21:52N 25°16' W 068°53'1 9.7 23.9
2017-Mar-22 21:47N 25°16' W 068°53'213.5 23.9
2017-Mar-22 21:38N 25°17' W 068°51'0 0.0 23.9
2017-Mar-22 20:06N 25°17' W 068°51'0 0.0
2017-Mar-22 20:05N 25°17' W 068°51'213.0 23.9
2017-Mar-22 19:57N 25°16' W 068°49'0 0.0 23.9
2017-Mar-22 18:22N 25°16' W 068°49'267.5
2017-Mar-22 18:20N 25°17' W 068°47'0 0.0 23.9
2017-Mar-22 15:56N 25°17' W 068°47'1 1.8 23.9
2017-Mar-22 15:15N 25°17' W 068°46'0 0.0 23.9
2017-Mar-22 15:12N 25°17' W 068°46'0 0.0 23.9
2017-Mar-22 15:06N 25°17' W 068°46'1 0.7 23.9
2017-Mar-22 14:20N 25°17' W 068°45'1 6.1 23.9
2017-Mar-22 14:12N 25°18' W 068°44'1 0.9 23.9
2017-Mar-22 13:34N 25°18' W 068°44'1 5.1 23.9
2017-Mar-22 13:27N 25°19' W 068°44'1 1.4 23.9
2017-Mar-22 12:32N 25°19' W 068°43'0 0.0 23.9
2017-Mar-22 12:21N 25°19' W 068°43'0 0.0 23.9
2017-Mar-22 12:20N 25°19' W 068°43'110.8 23.8
2017-Mar-22 12:14N 25°19' W 068°41'132.5 23.8
2017-Mar-22 12:12N 25°19' W 068°43'1 1.2 23.9
2017-Mar-22 11:16N 25°19' W 068°41'0 0.0 23.9
2017-Mar-22 11:12N 25°19' W 068°41'1 1.8 23.9
2017-Mar-22 10:45N 25°20' W 068°41'1 8.3 23.9
2017-Mar-22 10:36N 25°20' W 068°40'0 0.0 23.9
2017-Mar-22 09:34N 25°20' W 068°40'1 8.1 23.9
2017-Mar-22 09:28N 25°21' W 068°39'0 0.0 23.9
2017-Mar-22 08:48N 25°21' W 068°39'1 8.1 23.9
2017-Mar-22 08:44N 25°21' W 068°38'219.4 23.9
2017-Mar-22 08:39N 25°22' W 068°37'0 0.0 23.9
2017-Mar-22 07:06N 25°22' W 068°37'0 0.0 23.9
2017-Mar-22 07:01N 25°22' W 068°37'4 1.3 23.9
2017-Mar-22 03:32N 25°25' W 068°33'116.2 23.9
2017-Mar-22 03:29N 25°25' W 068°32'0 0.0 23.9
2017-Mar-22 02:46N 25°25' W 068°32'1 0.9 23.9
2017-Mar-22 01:51N 25°26' W 068°32'224.3 23.9
2017-Mar-22 01:47N 25°27' W 068°31'1 0.9 23.9
2017-Mar-22 01:05N 25°26' W 068°31'0 0.0 23.9
2017-Mar-22 01:02N 25°26' W 068°31'1 1.6 23.9
2017-Mar-22 00:12N 25°28' W 068°30'0 0.0 23.9
2017-Mar-22 00:05N 25°28' W 068°30'0 0.0 23.9
2017-Mar-22 00:02N 25°28' W 068°30'1 3.3 23.9
2017-Mar-21 23:52N 25°28' W 068°29'1 0.9 23.9
2017-Mar-21 22:26N 25°29' W 068°29'1 4.0 23.9
2017-Mar-21 22:14N 25°29' W 068°28'118.0 23.9
2017-Mar-21 22:12N 25°29' W 068°28'0 0.0 23.9
2017-Mar-21 22:04N 25°29' W 068°28'2 0.9 23.9
2017-Mar-21 20:19N 25°30' W 068°27'1 8.1
2017-Mar-21 20:15N 25°30' W 068°26'214.0 23.9
2017-Mar-21 20:06N 25°32' W 068°25'0 0.0 23.9
2017-Mar-21 18:39N 25°32' W 068°25'0 0.0 23.9
2017-Mar-21 18:36N 25°32' W 068°25'0 0.0 23.9
2017-Mar-21 18:33N 25°32' W 068°25'3 1.1 23.9
2017-Mar-21 15:32N 25°35' W 068°23'2 2.0 23.9
2017-Mar-21 14:35N 25°37' W 068°23'0 0.0 23.9
2017-Mar-21 13:52N 25°37' W 068°23'1 9.0 23.9
2017-Mar-21 13:48N 25°37' W 068°23'1 0.7 23.9
2017-Mar-21 13:00N 25°37' W 068°22'110.8 23.9
2017-Mar-21 12:57N 25°37' W 068°23'1 2.4 23.9
2017-Mar-21 12:37N 25°38' W 068°22'0 0.0 23.9
2017-Mar-21 12:32N 25°38' W 068°22'112.4 23.9
2017-Mar-21 12:26N 25°38' W 068°23'0 0.0 23.9
2017-Mar-21 11:46N 25°38' W 068°23'116.2 23.9
2017-Mar-21 11:43N 25°38' W 068°23'1 1.7 23.9
2017-Mar-21 10:57N 25°39' W 068°22'0 0.0 23.9
2017-Mar-21 10:53N 25°39' W 068°22'1 7.2 23.9
2017-Mar-21 10:48N 25°40' W 068°22'1 0.8 23.9
2017-Mar-21 10:05N 25°40' W 068°22'0 0.0 23.9
2017-Mar-21 10:01N 25°40' W 068°22'1 1.6 23.9
2017-Mar-21 09:15N 25°41' W 068°22'0 0.0 23.9
2017-Mar-21 08:59N 25°41' W 068°22'0 0.0 23.9
2017-Mar-21 08:56N 25°41' W 068°22'118.0 23.9
2017-Mar-21 08:52N 25°42' W 068°22'1 2.8 23.9
2017-Mar-21 08:26N 25°41' W 068°22'1 1.1 23.9
2017-Mar-21 07:20N 25°42' W 068°22'0 0.0 23.9
2017-Mar-21 07:17N 25°42' W 068°22'1 9.7 23.9
2017-Mar-21 07:12N 25°43' W 068°21'3 0.7 23.9
2017-Mar-21 03:08N 25°46' W 068°22'1 6.0 23.9
2017-Mar-21 03:02N 25°46' W 068°22'0 0.0 23.9
2017-Mar-21 02:16N 25°46' W 068°22'0 0.0 23.9
2017-Mar-21 02:10N 25°46' W 068°22'1 7.2 23.9
2017-Mar-21 02:05N 25°47' W 068°22'0 0.0 23.9
2017-Mar-21 01:28N 25°47' W 068°22'1 5.4 23.9
2017-Mar-21 01:22N 25°47' W 068°21'1 0.7 23.9
2017-Mar-21 00:33N 25°47' W 068°21'116.2 23.9
2017-Mar-21 00:29N 25°47' W 068°22'0 0.0 23.9
2017-Mar-21 00:13N 25°47' W 068°22'110.8 23.9
2017-Mar-21 00:10N 25°47' W 068°22'0 0.0 23.9
2017-Mar-21 00:06N 25°47' W 068°22'0 0.0 23.9
2017-Mar-21 00:04N 25°47' W 068°22'1 1.0 23.9
2017-Mar-20 22:52N 25°49' W 068°22'148.4 23.9
2017-Mar-20 22:51N 25°49' W 068°22'0 0.0 23.9
2017-Mar-20 22:23N 25°49' W 068°22'114.4 23.9
2017-Mar-20 22:18N 25°50' W 068°22'1 0.6 23.9
2017-Mar-20 21:17N 25°51' W 068°22'0 0.0 23.9
2017-Mar-20 20:52N 25°51' W 068°22'0 0.0 23.9
2017-Mar-20 20:31N 25°51' W 068°22'0 0.0 23.9
2017-Mar-20 20:28N 25°51' W 068°22'272.0 23.9
2017-Mar-20 20:26N 25°53' W 068°22'0 0.0 23.9
2017-Mar-20 18:51N 25°53' W 068°22'136.0 23.9
2017-Mar-20 18:50N 25°53' W 068°22'1 5.4 23.9
2017-Mar-20 18:44N 25°53' W 068°23'340.9 23.9
2017-Mar-20 18:39N 25°56' W 068°25'1 0.2 23.9
2017-Mar-20 15:52N 25°56' W 068°24'115.8 23.9
2017-Mar-20 15:47N 25°57' W 068°25'0 0.0 23.9
2017-Mar-20 15:00N 25°57' W 068°25'0 0.0 23.9
2017-Mar-20 14:57N 25°57' W 068°25'1 1.9 23.9
2017-Mar-20 14:17N 25°58' W 068°26'0 0.0 23.9
2017-Mar-20 14:12N 25°58' W 068°26'218.8 23.9
2017-Mar-20 14:06N 25°59' W 068°26'0 0.0 23.9
2017-Mar-20 13:17N 25°59' W 068°26'0 0.0 23.9
2017-Mar-20 13:00N 25°59' W 068°26'0 0.0 23.9
2017-Mar-20 12:46N 25°59' W 068°26'0 0.0 23.9
2017-Mar-20 12:43N 25°59' W 068°26'110.8 23.9
2017-Mar-20 12:40N 25°59' W 068°27'1 3.0 23.9
2017-Mar-20 12:14N 26°01' W 068°28'0 0.0 23.9
2017-Mar-20 11:22N 26°01' W 068°28'1 2.8 23.9
2017-Mar-20 11:05N 26°01' W 068°28'1 3.6 23.9
2017-Mar-20 10:56N 26°01' W 068°29'0 0.0 23.9
2017-Mar-20 10:35N 26°01' W 068°29'0 0.0 23.9
2017-Mar-20 10:31N 26°01' W 068°29'1 1.6 23.9
2017-Mar-20 09:44N 26°02' W 068°30'1 4.0 23.9
2017-Mar-20 09:36N 26°02' W 068°31'1 1.1 23.9
2017-Mar-20 09:06N 26°02' W 068°30'0 0.0 23.9
2017-Mar-20 09:04N 26°02' W 068°30'1 5.4 23.9
2017-Mar-20 08:58N 26°02' W 068°31'1 5.4 23.9
2017-Mar-20 08:52N 26°02' W 068°30'2 1.7 23.9
2017-Mar-20 07:32N 26°02' W 068°32'0 0.0 23.9
2017-Mar-20 07:27N 26°02' W 068°32'432.3 23.9
2017-Mar-20 07:20N 26°02' W 068°37'0 0.0 23.9
2017-Mar-20 02:36N 26°02' W 068°37'0 0.0 24.2
2017-Mar-20 02:30N 26°02' W 068°37'1 0.8 24.2
2017-Mar-20 01:50N 26°02' W 068°37'0 0.0 24.3
2017-Mar-20 01:42N 26°02' W 068°37'0 0.0 24.3
2017-Mar-20 00:52N 26°02' W 068°37'112.0 24.3
2017-Mar-20 00:49N 26°02' W 068°37'0 0.0 24.3
2017-Mar-20 00:17N 26°02' W 068°37'0 0.0 24.3
2017-Mar-20 00:14N 26°02' W 068°37'1 0.7 24.3
2017-Mar-19 23:29N 26°02' W 068°38'0 0.0 24.4
2017-Mar-19 23:21N 26°02' W 068°38'0 0.0 24.4
2017-Mar-19 23:03N 26°02' W 068°38'1 1.9 24.4
2017-Mar-19 22:37N 26°02' W 068°38'0 0.0
2017-Mar-19 22:35N 26°02' W 068°38'0 0.0 24.5
2017-Mar-19 22:31N 26°02' W 068°38'1 0.9 24.5
2017-Mar-19 21:49N 26°02' W 068°38'1 1.3 24.7
2017-Mar-19 21:22N 26°02' W 068°38'0 0.0 24.8
2017-Mar-19 21:13N 26°02' W 068°38'1 1.0 24.8
2017-Mar-19 20:37N 26°02' W 068°38'1 0.4 24.8
2017-Mar-19 18:59N 26°02' W 068°38'1 4.6 24.4
2017-Mar-19 18:52N 26°02' W 068°39'1 0.8 24.4
2017-Mar-19 17:16N 26°04' W 068°40'0 0.0 24.1
2017-Mar-19 16:12N 26°04' W 068°40'0 0.0 24.0
2017-Mar-19 15:21N 26°04' W 068°40'1 8.1 23.7
2017-Mar-19 15:17N 26°04' W 068°39'0 0.0 23.7
2017-Mar-19 14:34N 26°04' W 068°39'1 6.5 23.9
2017-Mar-19 14:29N 26°04' W 068°40'1 0.6 23.9
2017-Mar-19 13:37N 26°04' W 068°40'1 1.2 23.8
2017-Mar-19 12:56N 26°04' W 068°41'1 6.5 23.8
2017-Mar-19 12:51N 26°04' W 068°40'1 0.5 23.9
2017-Mar-19 11:48N 26°04' W 068°41'1 1.2 23.8
2017-Mar-19 11:21N 26°04' W 068°41'0 0.0 23.8
2017-Mar-19 11:16N 26°04' W 068°41'1 3.3 23.8
2017-Mar-19 11:05N 26°05' W 068°41'1 0.5 23.8
2017-Mar-19 10:06N 26°05' W 068°42'0 0.0 23.9
2017-Mar-19 09:30N 26°05' W 068°42'0 0.0 23.9
2017-Mar-19 09:21N 26°05' W 068°42'132.3
2017-Mar-19 09:20N 26°05' W 068°41'110.8 23.8
2017-Mar-19 09:17N 26°05' W 068°41'1 0.7 23.8
2017-Mar-19 07:45N 26°05' W 068°42'0 0.0 23.9
2017-Mar-19 07:38N 26°05' W 068°42'0 0.0 23.9
2017-Mar-19 07:32N 26°05' W 068°42'   23.9
Track history (hours):
 
Tides and Currents Weather Stations Pressure Air Temp Water Temp Dewpoint Dewpoint Depression Visibility Wind Speed Wind Dir Waves Ship Positions

Drifting buoy 13526

Last reported at 2017-Mar-29 07:29 UTC. Time now 2017-Mar-29 09:25 UTC.
Position N 24°39' W 071°35'.

Water temperature 24.6 ° C

Date/timePositionNaut miles runAvg speedWind from/ knotsBaromVisibWave heightAir tempDewpointWater temp
2017-Mar-29 07:29N 24°39' W 071°35'116.2 24.6
2017-Mar-29 07:26N 24°40' W 071°36'320.9 24.6
2017-Mar-29 07:18N 24°40' W 071°33'0 0.0 24.6
2017-Mar-29 03:39N 24°40' W 071°33'0 0.0 24.6
2017-Mar-29 02:50N 24°40' W 071°33'0 0.0 24.6
2017-Mar-29 02:45N 24°40' W 071°33'1 1.1 24.6
2017-Mar-29 02:02N 24°41' W 071°34'1 8.1 24.6
2017-Mar-29 01:56N 24°41' W 071°33'0 0.0 24.6
2017-Mar-29 01:05N 24°41' W 071°33'1 9.0 24.6
2017-Mar-29 01:01N 24°41' W 071°33'0 0.0 24.6
2017-Mar-29 00:18N 24°41' W 071°33'0 0.0 24.6
2017-Mar-29 00:15N 24°41' W 071°33'0 0.0 24.6
2017-Mar-29 00:06N 24°41' W 071°33'1 2.9 24.6
2017-Mar-28 23:49N 24°41' W 071°34'0 0.0 24.6
2017-Mar-28 23:44N 24°41' W 071°34'1 0.5 24.6
2017-Mar-28 22:38N 24°41' W 071°33'1 4.7 24.6
2017-Mar-28 22:31N 24°41' W 071°34'1 9.7 24.6
2017-Mar-28 22:26N 24°42' W 071°34'0 0.0 24.6
2017-Mar-28 22:06N 24°42' W 071°34'0 0.0 24.6
2017-Mar-28 22:04N 24°42' W 071°34'1 0.5 24.6
2017-Mar-28 20:52N 24°41' W 071°34'0 0.0 24.5
2017-Mar-28 20:37N 24°41' W 071°34'0 0.0 24.5
2017-Mar-28 18:57N 24°41' W 071°34'0 0.0 24.4
2017-Mar-28 18:50N 24°41' W 071°34'0 0.0 24.4
2017-Mar-28 15:37N 24°41' W 071°34'0 0.0 24.2
2017-Mar-28 15:32N 24°41' W 071°34'1 1.5 24.2
2017-Mar-28 14:49N 24°41' W 071°33'1 5.5 24.2
2017-Mar-28 14:43N 24°41' W 071°32'0 0.0 24.2
2017-Mar-28 13:52N 24°41' W 071°32'1 1.1 24.2
2017-Mar-28 13:06N 24°41' W 071°32'0 0.0 24.2
2017-Mar-28 13:02N 24°41' W 071°32'1 8.1 24.2
2017-Mar-28 12:56N 24°41' W 071°31'1 6.5 24.2
2017-Mar-28 12:51N 24°41' W 071°31'124.9 24.2
2017-Mar-28 12:48N 24°41' W 071°29'0 0.0 24.2
2017-Mar-28 11:28N 24°41' W 071°29'0 0.0 24.1
2017-Mar-28 11:25N 24°41' W 071°29'0 0.0 24.1
2017-Mar-28 11:22N 24°41' W 071°29'1 4.5 24.1
2017-Mar-28 11:14N 24°40' W 071°29'2 1.2 24.1
2017-Mar-28 09:50N 24°41' W 071°28'0 0.0 24.1
2017-Mar-28 09:47N 24°41' W 071°28'0 0.0 24.1
2017-Mar-28 09:42N 24°41' W 071°28'1 1.4 24.1
2017-Mar-28 09:19N 24°41' W 071°27'0 0.0 24.1
2017-Mar-28 09:16N 24°41' W 071°27'232.7 24.1
2017-Mar-28 09:13N 24°41' W 071°25'0 0.0 24.1
2017-Mar-28 07:37N 24°41' W 071°25'4 0.8 24.1
2017-Mar-28 03:05N 24°43' W 071°22'1 1.7 24.1
2017-Mar-28 02:22N 24°44' W 071°21'1 4.7 24.1
2017-Mar-28 02:15N 24°44' W 071°20'0 0.0 24.1
2017-Mar-28 01:30N 24°44' W 071°20'1 5.4 24.1
2017-Mar-28 01:24N 24°44' W 071°21'1 1.1 24.1
2017-Mar-28 00:41N 24°44' W 071°20'112.0 24.1
2017-Mar-28 00:38N 24°45' W 071°20'0 0.0 24.1
2017-Mar-28 00:26N 24°45' W 071°20'0 0.0 24.1
2017-Mar-28 00:20N 24°45' W 071°20'1 6.1 24.1
2017-Mar-28 00:12N 24°46' W 071°20'0 0.0 24.1
2017-Mar-27 23:03N 24°46' W 071°20'1 9.7 24.1
2017-Mar-27 22:58N 24°45' W 071°19'1 6.9 24.1
2017-Mar-27 22:51N 24°46' W 071°20'0 0.0 24.1
2017-Mar-27 22:43N 24°46' W 071°20'1 5.4 24.1
2017-Mar-27 22:34N 24°46' W 071°19'0 0.0 24.1
2017-Mar-27 21:22N 24°46' W 071°19'1 4.1 24.2
2017-Mar-27 21:14N 24°46' W 071°19'0 0.0 24.2
2017-Mar-27 20:50N 24°46' W 071°19'0 0.0 24.2
2017-Mar-27 20:46N 24°46' W 071°19'1 0.5 24.2
2017-Mar-27 19:05N 24°46' W 071°18'174.6 24.2
2017-Mar-27 19:04N 24°45' W 071°17'0 0.0 24.2
2017-Mar-27 15:55N 24°45' W 071°17'0 0.0 24.1
2017-Mar-27 15:52N 24°45' W 071°17'2 2.1 24.1
2017-Mar-27 15:05N 24°44' W 071°16'0 0.0 24.1
2017-Mar-27 14:15N 24°44' W 071°16'1 3.6 24.1
2017-Mar-27 14:06N 24°44' W 071°15'0 0.0 24.1
2017-Mar-27 13:29N 24°44' W 071°15'1 8.1 24.1
2017-Mar-27 13:23N 24°43' W 071°14'0 0.0 24.1
2017-Mar-27 13:06N 24°43' W 071°14'110.9 24.1
2017-Mar-27 13:00N 24°43' W 071°13'0 0.0 24.1
2017-Mar-27 11:57N 24°43' W 071°13'0 0.0 24.1
2017-Mar-27 11:54N 24°43' W 071°13'0 0.0 24.1
2017-Mar-27 11:48N 24°43' W 071°13'1 1.2 24.1
2017-Mar-27 11:21N 24°43' W 071°13'114.9 24.1
2017-Mar-27 11:16N 24°43' W 071°11'0 0.0 24.1
2017-Mar-27 10:21N 24°43' W 071°11'0 0.0 24.1
2017-Mar-27 10:18N 24°43' W 071°11'0 0.0 24.1
2017-Mar-27 10:13N 24°43' W 071°11'1 4.7 24.1
2017-Mar-27 10:06N 24°43' W 071°11'1 6.5 24.1
2017-Mar-27 10:01N 24°43' W 071°10'1 1.2 24.1
2017-Mar-27 09:30N 24°43' W 071°10'222.6 24.1
2017-Mar-27 09:24N 24°43' W 071°08'0 0.0 24.1
2017-Mar-27 08:38N 24°43' W 071°08'0 0.0 24.2
2017-Mar-27 07:49N 24°43' W 071°08'767.8 24.2
2017-Mar-27 07:43N 24°44' W 071°01'0 0.0 24.2
2017-Mar-27 03:30N 24°44' W 071°01'112.0 24.2
2017-Mar-27 03:27N 24°44' W 071°01'137.3 24.2
2017-Mar-27 03:25N 24°44' W 070°59'0 0.0 24.2
2017-Mar-27 02:45N 24°44' W 070°59'0 0.0 24.2
2017-Mar-27 02:42N 24°44' W 070°59'1 1.5 24.2
2017-Mar-27 01:52N 24°45' W 070°58'0 0.0 24.2
2017-Mar-27 01:46N 24°45' W 070°58'110.9 24.2
2017-Mar-27 01:43N 24°45' W 070°58'0 0.0 24.2
2017-Mar-27 01:03N 24°45' W 070°58'1 9.7 24.1
2017-Mar-27 00:58N 24°46' W 070°57'0 0.0 24.1
2017-Mar-27 00:46N 24°46' W 070°57'0 0.0 24.1
2017-Mar-27 00:35N 24°46' W 070°57'110.9 24.1
2017-Mar-27 00:32N 24°46' W 070°56'0 0.0 24.1
2017-Mar-27 00:06N 24°46' W 070°56'1 0.9 24.1
2017-Mar-26 23:28N 24°46' W 070°56'1 1.5 24.1
2017-Mar-26 23:06N 24°46' W 070°55'1 2.6 24.1
2017-Mar-26 22:52N 24°46' W 070°55'121.8 24.1
2017-Mar-26 22:49N 24°46' W 070°54'0 0.0 24.1
2017-Mar-26 21:48N 24°46' W 070°54'1 1.8 24.1
2017-Mar-26 21:30N 24°46' W 070°53'1 1.1 24.1
2017-Mar-26 21:00N 24°46' W 070°53'0 0.0 24.1
2017-Mar-26 20:57N 24°46' W 070°53'2 1.0 24.1
2017-Mar-26 19:19N 24°46' W 070°51'349.8 24.1
2017-Mar-26 19:15N 24°47' W 070°47'0 0.0 24.1
2017-Mar-26 17:38N 24°47' W 070°47'0 0.0 24.0
2017-Mar-26 16:14N 24°47' W 070°47'1 0.7 24.0
2017-Mar-26 15:29N 24°47' W 070°47'110.9 24.0
2017-Mar-26 15:26N 24°47' W 070°46'1 0.7 24.0
2017-Mar-26 14:37N 24°47' W 070°46'0 0.0 23.9
2017-Mar-26 14:31N 24°47' W 070°46'0 0.0 23.9
2017-Mar-26 13:47N 24°47' W 070°46'1 1.6 23.9
2017-Mar-26 13:17N 24°47' W 070°45'1 8.2 23.9
2017-Mar-26 13:13N 24°47' W 070°44'1 1.9 23.9
2017-Mar-26 12:56N 24°47' W 070°45'1 7.2 23.9
2017-Mar-26 12:51N 24°48' W 070°45'148.6 23.9
2017-Mar-26 12:50N 24°47' W 070°44'0 0.0 23.9
2017-Mar-26 12:13N 24°47' W 070°44'1 1.3 23.9
2017-Mar-26 11:36N 24°48' W 070°44'0 0.0 23.9
2017-Mar-26 11:32N 24°48' W 070°44'113.1 23.9
2017-Mar-26 11:27N 24°48' W 070°43'0 0.0 23.9
2017-Mar-26 10:52N 24°48' W 070°43'0 0.0 23.9
2017-Mar-26 10:47N 24°48' W 070°43'0 0.0 23.9
2017-Mar-26 10:43N 24°48' W 070°43'0 0.0 23.9
2017-Mar-26 10:32N 24°48' W 070°43'2 2.5 23.9
2017-Mar-26 09:52N 24°48' W 070°41'0 0.0 23.9
2017-Mar-26 09:37N 24°48' W 070°41'0 0.0 23.9
2017-Mar-26 09:06N 24°48' W 070°41'124.3 23.9
2017-Mar-26 09:04N 24°49' W 070°40'0 0.0 23.9
2017-Mar-26 08:02N 24°49' W 070°40'543.3 23.9
2017-Mar-26 07:55N 24°50' W 070°35'0 0.0 23.9
2017-Mar-26 06:17N 24°50' W 070°35'0 0.0 23.9
2017-Mar-26 03:47N 24°50' W 070°35'0 0.0 23.9
2017-Mar-26 03:04N 24°50' W 070°35'1 6.5 23.8
2017-Mar-26 02:59N 24°50' W 070°34'0 0.0 23.8
2017-Mar-26 02:06N 24°50' W 070°34'137.3 23.9
2017-Mar-26 02:04N 24°50' W 070°33'0 0.0 23.9
2017-Mar-26 01:24N 24°50' W 070°33'1 5.1 23.9
2017-Mar-26 01:17N 24°51' W 070°33'0 0.0 23.9
2017-Mar-26 00:46N 24°51' W 070°33'1 1.9 23.9
2017-Mar-26 00:29N 24°51' W 070°32'1 8.2 23.9
2017-Mar-26 00:25N 24°51' W 070°32'1 1.4 23.9
2017-Mar-25 23:51N 24°52' W 070°31'1 4.1 23.8
2017-Mar-25 23:43N 24°52' W 070°32'0 0.0 23.8
2017-Mar-25 23:40N 24°52' W 070°32'0 0.0 23.8
2017-Mar-25 23:37N 24°52' W 070°32'1 1.1 23.8
2017-Mar-25 23:06N 24°52' W 070°31'116.3 23.8
2017-Mar-25 23:02N 24°52' W 070°30'0 0.0 23.8
2017-Mar-25 22:13N 24°52' W 070°30'0 0.0 23.9
2017-Mar-25 22:00N 24°52' W 070°30'1 1.9 23.9
2017-Mar-25 21:25N 24°52' W 070°29'1 2.6 23.9
2017-Mar-25 21:11N 24°51' W 070°29'2 1.4 23.9
2017-Mar-25 19:33N 24°52' W 070°26'0 0.0 23.9
2017-Mar-25 19:30N 24°52' W 070°26'341.8 23.9
2017-Mar-25 19:26N 24°52' W 070°23'0 0.0 23.9
2017-Mar-25 17:51N 24°52' W 070°23'224.3 24.0
2017-Mar-25 17:46N 24°53' W 070°22'0 0.0 24.0
2017-Mar-25 15:48N 24°53' W 070°22'1 6.5 24.1
2017-Mar-25 15:43N 24°53' W 070°21'0 0.0 24.1
2017-Mar-25 14:59N 24°53' W 070°21'1 6.1 24.0
2017-Mar-25 14:51N 24°54' W 070°20'1 0.8 24.0
2017-Mar-25 14:05N 24°53' W 070°20'124.9 24.0
2017-Mar-25 14:02N 24°54' W 070°19'0 0.0 24.0
2017-Mar-25 13:25N 24°54' W 070°19'0 0.0 24.0
2017-Mar-25 13:15N 24°54' W 070°19'1 1.3 24.0
2017-Mar-25 12:38N 24°55' W 070°19'1 1.3 24.0
2017-Mar-25 11:49N 24°55' W 070°17'1 4.5 23.9
2017-Mar-25 11:41N 24°55' W 070°17'0 0.0 23.9
2017-Mar-25 11:23N 24°55' W 070°17'110.9 23.9
2017-Mar-25 11:20N 24°55' W 070°17'0 0.0 23.9
2017-Mar-25 10:58N 24°55' W 070°17'1 0.9 23.9
2017-Mar-25 10:06N 24°56' W 070°16'116.2 23.9
2017-Mar-25 10:03N 24°55' W 070°16'0 0.0 23.9
2017-Mar-25 09:52N 24°55' W 070°16'0 0.0 23.9
2017-Mar-25 09:49N 24°55' W 070°16'0 0.0 23.9
2017-Mar-25 09:40N 24°55' W 070°16'1 6.5 23.9
2017-Mar-25 09:35N 24°55' W 070°15'2 1.7 23.9
2017-Mar-25 08:16N 24°55' W 070°13'1 3.3 23.9
2017-Mar-25 08:06N 24°55' W 070°12'1 0.5 23.9
2017-Mar-25 06:33N 24°56' W 070°13'339.2 23.9
2017-Mar-25 06:28N 24°56' W 070°09'1 0.2 23.9
2017-Mar-25 03:20N 24°56' W 070°08'0 0.0 23.9
2017-Mar-25 02:34N 24°56' W 070°08'1 4.7 23.9
2017-Mar-25 02:27N 24°56' W 070°09'1 1.6 23.9
2017-Mar-25 01:45N 24°56' W 070°08'1 6.5 23.8
2017-Mar-25 01:40N 24°56' W 070°07'1 0.9 23.8
2017-Mar-25 00:59N 24°55' W 070°07'0 0.0 23.8
2017-Mar-25 00:52N 24°55' W 070°07'1 5.4 23.8
2017-Mar-25 00:46N 24°55' W 070°07'1 1.0 23.8
2017-Mar-25 00:14N 24°55' W 070°06'0 0.0 23.8
2017-Mar-25 00:06N 24°55' W 070°06'1 1.3 23.8
2017-Mar-24 23:16N 24°55' W 070°05'112.0 23.9
2017-Mar-24 23:13N 24°55' W 070°05'0 0.0 23.9
2017-Mar-24 22:37N 24°55' W 070°05'0 0.0 23.9
2017-Mar-24 22:31N 24°55' W 070°05'2104.4 23.9
2017-Mar-24 22:30N 24°54' W 070°03'0 0.0 23.9
2017-Mar-24 22:27N 24°54' W 070°03'0 0.0 23.9
2017-Mar-24 21:38N 24°54' W 070°03'116.2 24.0
2017-Mar-24 21:35N 24°53' W 070°02'0 0.0 24.0
2017-Mar-24 21:22N 24°53' W 070°02'2 5.0 24.0
2017-Mar-24 20:56N 24°53' W 070°00'0 0.0 24.0
2017-Mar-24 20:52N 24°53' W 070°00'0 0.0 24.0
2017-Mar-24 19:41N 24°53' W 070°00'341.8 24.1
2017-Mar-24 19:37N 24°53' W 069°57'0 0.0 24.1
2017-Mar-24 18:03N 24°53' W 069°57'112.0 24.0
2017-Mar-24 18:00N 24°52' W 069°57'477.1 24.0
2017-Mar-24 17:57N 24°53' W 069°53'0 0.0 24.0
2017-Mar-24 15:19N 24°53' W 069°53'220.9 23.9
2017-Mar-24 15:14N 24°53' W 069°51'0 0.0 23.9
2017-Mar-24 14:33N 24°53' W 069°51'0 0.0 23.9
2017-Mar-24 14:30N 24°53' W 069°51'0 0.0 23.9
2017-Mar-24 14:25N 24°53' W 069°51'1 0.7 23.9
2017-Mar-24 13:36N 24°53' W 069°51'3178.5
2017-Mar-24 13:35N 24°54' W 069°48'0 0.0 23.9
2017-Mar-24 13:01N 24°54' W 069°48'0 0.0 23.9
2017-Mar-24 12:00N 24°54' W 069°48'0 0.0 23.8
2017-Mar-24 11:57N 24°54' W 069°48'1 4.5 23.8
2017-Mar-24 11:49N 24°53' W 069°48'1 2.9 23.8
2017-Mar-24 11:23N 24°54' W 069°47'1 0.8 23.7
2017-Mar-24 10:20N 24°55' W 069°46'0 0.0 23.6
2017-Mar-24 10:14N 24°55' W 069°46'1 8.2 23.6
2017-Mar-24 10:06N 24°55' W 069°45'0 0.0 23.6
2017-Mar-24 10:02N 24°55' W 069°45'0 0.0 23.6
2017-Mar-24 09:43N 24°55' W 069°45'224.5 23.6
2017-Mar-24 09:39N 24°55' W 069°43'0 0.0 23.6
2017-Mar-24 08:26N 24°55' W 069°43'0 0.0 23.6
2017-Mar-24 08:23N 24°55' W 069°43'110.9 23.6
2017-Mar-24 08:20N 24°55' W 069°43'232.7 23.6
2017-Mar-24 08:16N 24°55' W 069°40'0 0.0 23.6
2017-Mar-24 06:44N 24°55' W 069°40'1 6.5 23.7
2017-Mar-24 06:39N 24°55' W 069°41'6 1.6 23.6
2017-Mar-24 02:52N 24°55' W 069°34'1 8.2 23.7
2017-Mar-24 02:48N 24°55' W 069°35'2 3.1 23.7
2017-Mar-24 02:06N 24°55' W 069°32'0 0.0 23.7
2017-Mar-24 02:05N 24°55' W 069°32'1 6.5 23.7
2017-Mar-24 02:00N 24°55' W 069°32'1 1.2 23.7
2017-Mar-24 01:06N 24°55' W 069°31'0 0.0 23.7
2017-Mar-24 00:40N 24°55' W 069°31'1 2.1 23.7
2017-Mar-24 00:23N 24°54' W 069°31'2 2.5 23.7
2017-Mar-23 23:28N 24°55' W 069°28'110.9 23.7
2017-Mar-23 23:22N 24°55' W 069°27'0 0.0 23.7
2017-Mar-23 23:05N 24°55' W 069°27'1 4.0 23.7
2017-Mar-23 22:56N 24°55' W 069°27'3 2.5 23.7
2017-Mar-23 21:50N 24°55' W 069°24'112.0 23.8
2017-Mar-23 21:47N 24°56' W 069°24'110.9 23.8
2017-Mar-23 21:44N 24°56' W 069°23'0 0.0 23.8
2017-Mar-23 21:32N 24°56' W 069°23'0 0.0 23.8
2017-Mar-23 21:24N 24°56' W 069°23'0 0.0 23.8
2017-Mar-23 21:23N 24°56' W 069°23'320.9 23.8
2017-Mar-23 21:13N 24°57' W 069°20'0 0.0 23.8
2017-Mar-23 19:52N 24°57' W 069°20'1 9.7 23.9
2017-Mar-23 19:47N 24°58' W 069°19'3 1.8 23.9
2017-Mar-23 18:15N 24°58' W 069°16'657.4 23.9
2017-Mar-23 18:09N 25°01' W 069°11'0 0.0 23.9
2017-Mar-23 15:39N 25°01' W 069°11'1 9.7 23.8
2017-Mar-23 15:34N 25°02' W 069°10'0 0.0 23.8
2017-Mar-23 14:52N 25°02' W 069°10'0 0.0 23.8
2017-Mar-23 14:50N 25°02' W 069°10'232.4 23.8
2017-Mar-23 14:47N 25°03' W 069°09'0 0.0 23.8
2017-Mar-23 13:59N 25°03' W 069°09'0 0.0 23.7
2017-Mar-23 13:58N 25°03' W 069°09'2 2.9 23.7
2017-Mar-23 13:06N 25°04' W 069°07'0 0.0 23.7
2017-Mar-23 12:20N 25°04' W 069°07'1 2.3 23.7
2017-Mar-23 12:06N 25°04' W 069°06'1 2.4 23.7
2017-Mar-23 11:51N 25°05' W 069°06'0 0.0 23.7
2017-Mar-23 11:48N 25°05' W 069°06'2 1.5 23.7
2017-Mar-23 10:45N 25°06' W 069°05'0 0.0 23.7
2017-Mar-23 10:42N 25°06' W 069°05'1 7.2 23.7
2017-Mar-23 10:37N 25°05' W 069°05'1 7.2 23.7
2017-Mar-23 10:32N 25°06' W 069°05'0 0.0 23.7
2017-Mar-23 10:26N 25°06' W 069°05'1 2.4 23.7
2017-Mar-23 10:06N 25°07' W 069°04'112.4 23.7
2017-Mar-23 10:00N 25°07' W 069°03'0 0.0 23.7
2017-Mar-23 09:05N 25°07' W 069°03'112.0 23.7
2017-Mar-23 09:02N 25°07' W 069°03'116.2 23.7
2017-Mar-23 08:59N 25°07' W 069°02'0 0.0 23.7
2017-Mar-23 08:37N 25°07' W 069°02'0 0.0 23.7
2017-Mar-23 08:33N 25°07' W 069°02'2 1.0 23.7
2017-Mar-23 06:52N 25°08' W 069°01'5150.0 23.7
2017-Mar-23 06:50N 25°13' W 068°58'0 0.0 23.7
2017-Mar-23 03:14N 25°13' W 068°58'1 4.5 23.9
2017-Mar-23 03:06N 25°12' W 068°58'2 2.6 23.9
2017-Mar-23 02:28N 25°13' W 068°57'1 5.4 23.9
2017-Mar-23 02:19N 25°14' W 068°56'0 0.0 23.9
2017-Mar-23 01:33N 25°14' W 068°56'112.4 23.9
2017-Mar-23 01:27N 25°14' W 068°55'0 0.0 23.9
2017-Mar-23 00:45N 25°14' W 068°55'112.1 23.9
2017-Mar-23 00:41N 25°15' W 068°55'0 0.0 23.9
2017-Mar-22 23:50N 25°15' W 068°55'0 0.0 23.9
2017-Mar-22 23:44N 25°15' W 068°55'0 0.0 23.9
2017-Mar-22 23:41N 25°15' W 068°55'0 0.0 23.9
2017-Mar-22 23:35N 25°15' W 068°55'0 0.0 23.9
2017-Mar-22 23:27N 25°15' W 068°55'0 0.0 23.9
2017-Mar-22 23:22N 25°15' W 068°55'1 0.9 23.9
2017-Mar-22 22:03N 25°16' W 068°53'1 9.7 23.9
2017-Mar-22 21:58N 25°16' W 068°53'1 5.4 23.9
2017-Mar-22 21:52N 25°16' W 068°53'1 9.7 23.9
2017-Mar-22 21:47N 25°16' W 068°53'213.5 23.9
2017-Mar-22 21:38N 25°17' W 068°51'0 0.0 23.9
2017-Mar-22 20:06N 25°17' W 068°51'0 0.0
2017-Mar-22 20:05N 25°17' W 068°51'213.0 23.9
2017-Mar-22 19:57N 25°16' W 068°49'0 0.0 23.9
2017-Mar-22 18:22N 25°16' W 068°49'267.5
2017-Mar-22 18:20N 25°17' W 068°47'0 0.0 23.9
2017-Mar-22 15:56N 25°17' W 068°47'1 1.8 23.9
2017-Mar-22 15:15N 25°17' W 068°46'0 0.0 23.9
2017-Mar-22 15:12N 25°17' W 068°46'0 0.0 23.9
2017-Mar-22 15:06N 25°17' W 068°46'1 0.7 23.9
2017-Mar-22 14:20N 25°17' W 068°45'1 6.1 23.9
2017-Mar-22 14:12N 25°18' W 068°44'1 0.9 23.9
2017-Mar-22 13:34N 25°18' W 068°44'1 5.1 23.9
2017-Mar-22 13:27N 25°19' W 068°44'1 1.4 23.9
2017-Mar-22 12:32N 25°19' W 068°43'0 0.0 23.9
2017-Mar-22 12:21N 25°19' W 068°43'0 0.0 23.9
2017-Mar-22 12:20N 25°19' W 068°43'110.8 23.8
2017-Mar-22 12:14N 25°19' W 068°41'132.5 23.8
2017-Mar-22 12:12N 25°19' W 068°43'1 1.2 23.9
2017-Mar-22 11:16N 25°19' W 068°41'0 0.0 23.9
2017-Mar-22 11:12N 25°19' W 068°41'1 1.8 23.9
2017-Mar-22 10:45N 25°20' W 068°41'1 8.3 23.9
2017-Mar-22 10:36N 25°20' W 068°40'0 0.0 23.9
2017-Mar-22 09:34N 25°20' W 068°40'1 8.1 23.9
2017-Mar-22 09:28N 25°21' W 068°39'0 0.0 23.9
2017-Mar-22 08:48N 25°21' W 068°39'1 8.1 23.9
2017-Mar-22 08:44N 25°21' W 068°38'219.4 23.9
2017-Mar-22 08:39N 25°22' W 068°37'0 0.0 23.9
2017-Mar-22 07:06N 25°22' W 068°37'0 0.0 23.9
2017-Mar-22 07:01N 25°22' W 068°37'4 1.3 23.9
2017-Mar-22 03:32N 25°25' W 068°33'116.2 23.9
2017-Mar-22 03:29N 25°25' W 068°32'0 0.0 23.9
2017-Mar-22 02:46N 25°25' W 068°32'1 0.9 23.9
2017-Mar-22 01:51N 25°26' W 068°32'224.3 23.9
2017-Mar-22 01:47N 25°27' W 068°31'1 0.9 23.9
2017-Mar-22 01:05N 25°26' W 068°31'0 0.0 23.9
2017-Mar-22 01:02N 25°26' W 068°31'1 1.6 23.9
2017-Mar-22 00:12N 25°28' W 068°30'0 0.0 23.9
2017-Mar-22 00:05N 25°28' W 068°30'0 0.0 23.9
2017-Mar-22 00:02N 25°28' W 068°30'1 3.3 23.9
2017-Mar-21 23:52N 25°28' W 068°29'1 0.9 23.9
2017-Mar-21 22:26N 25°29' W 068°29'1 4.0 23.9
2017-Mar-21 22:14N 25°29' W 068°28'118.0 23.9
2017-Mar-21 22:12N 25°29' W 068°28'0 0.0 23.9
2017-Mar-21 22:04N 25°29' W 068°28'2 0.9 23.9
2017-Mar-21 20:19N 25°30' W 068°27'1 8.1
2017-Mar-21 20:15N 25°30' W 068°26'214.0 23.9
2017-Mar-21 20:06N 25°32' W 068°25'0 0.0 23.9
2017-Mar-21 18:39N 25°32' W 068°25'0 0.0 23.9
2017-Mar-21 18:36N 25°32' W 068°25'0 0.0 23.9
2017-Mar-21 18:33N 25°32' W 068°25'3 1.1 23.9
2017-Mar-21 15:32N 25°35' W 068°23'2 2.0 23.9
2017-Mar-21 14:35N 25°37' W 068°23'0 0.0 23.9
2017-Mar-21 13:52N 25°37' W 068°23'1 9.0 23.9
2017-Mar-21 13:48N 25°37' W 068°23'1 0.7 23.9
2017-Mar-21 13:00N 25°37' W 068°22'110.8 23.9
2017-Mar-21 12:57N 25°37' W 068°23'1 2.4 23.9
2017-Mar-21 12:37N 25°38' W 068°22'0 0.0 23.9
2017-Mar-21 12:32N 25°38' W 068°22'112.4 23.9
2017-Mar-21 12:26N 25°38' W 068°23'0 0.0 23.9
2017-Mar-21 11:46N 25°38' W 068°23'116.2 23.9
2017-Mar-21 11:43N 25°38' W 068°23'1 1.7 23.9
2017-Mar-21 10:57N 25°39' W 068°22'0 0.0 23.9
2017-Mar-21 10:53N 25°39' W 068°22'1 7.2 23.9
2017-Mar-21 10:48N 25°40' W 068°22'1 0.8 23.9
2017-Mar-21 10:05N 25°40' W 068°22'0 0.0 23.9
2017-Mar-21 10:01N 25°40' W 068°22'1 1.6 23.9
2017-Mar-21 09:15N 25°41' W 068°22'0 0.0 23.9
2017-Mar-21 08:59N 25°41' W 068°22'0 0.0 23.9
2017-Mar-21 08:56N 25°41' W 068°22'118.0 23.9
2017-Mar-21 08:52N 25°42' W 068°22'1 2.8 23.9
2017-Mar-21 08:26N 25°41' W 068°22'1 1.1 23.9
2017-Mar-21 07:20N 25°42' W 068°22'0 0.0 23.9
2017-Mar-21 07:17N 25°42' W 068°22'1 9.7 23.9
2017-Mar-21 07:12N 25°43' W 068°21'3 0.7 23.9
2017-Mar-21 03:08N 25°46' W 068°22'1 6.0 23.9
2017-Mar-21 03:02N 25°46' W 068°22'0 0.0 23.9
2017-Mar-21 02:16N 25°46' W 068°22'0 0.0 23.9
2017-Mar-21 02:10N 25°46' W 068°22'1 7.2 23.9
2017-Mar-21 02:05N 25°47' W 068°22'0 0.0 23.9
2017-Mar-21 01:28N 25°47' W 068°22'1 5.4 23.9
2017-Mar-21 01:22N 25°47' W 068°21'1 0.7 23.9
2017-Mar-21 00:33N 25°47' W 068°21'116.2 23.9
2017-Mar-21 00:29N 25°47' W 068°22'0 0.0 23.9
2017-Mar-21 00:13N 25°47' W 068°22'110.8 23.9
2017-Mar-21 00:10N 25°47' W 068°22'0 0.0 23.9
2017-Mar-21 00:06N 25°47' W 068°22'0 0.0 23.9
2017-Mar-21 00:04N 25°47' W 068°22'1 1.0 23.9
2017-Mar-20 22:52N 25°49' W 068°22'148.4 23.9
2017-Mar-20 22:51N 25°49' W 068°22'0 0.0 23.9
2017-Mar-20 22:23N 25°49' W 068°22'114.4 23.9
2017-Mar-20 22:18N 25°50' W 068°22'1 0.6 23.9
2017-Mar-20 21:17N 25°51' W 068°22'0 0.0 23.9
2017-Mar-20 20:52N 25°51' W 068°22'0 0.0 23.9
2017-Mar-20 20:31N 25°51' W 068°22'0 0.0 23.9
2017-Mar-20 20:28N 25°51' W 068°22'272.0 23.9
2017-Mar-20 20:26N 25°53' W 068°22'0 0.0 23.9
2017-Mar-20 18:51N 25°53' W 068°22'136.0 23.9
2017-Mar-20 18:50N 25°53' W 068°22'1 5.4 23.9
2017-Mar-20 18:44N 25°53' W 068°23'340.9 23.9
2017-Mar-20 18:39N 25°56' W 068°25'1 0.2 23.9
2017-Mar-20 15:52N 25°56' W 068°24'115.8 23.9
2017-Mar-20 15:47N 25°57' W 068°25'0 0.0 23.9
2017-Mar-20 15:00N 25°57' W 068°25'0 0.0 23.9
2017-Mar-20 14:57N 25°57' W 068°25'1 1.9 23.9
2017-Mar-20 14:17N 25°58' W 068°26'0 0.0 23.9
2017-Mar-20 14:12N 25°58' W 068°26'218.8 23.9
2017-Mar-20 14:06N 25°59' W 068°26'0 0.0 23.9
2017-Mar-20 13:17N 25°59' W 068°26'0 0.0 23.9
2017-Mar-20 13:00N 25°59' W 068°26'0 0.0 23.9
2017-Mar-20 12:46N 25°59' W 068°26'0 0.0 23.9
2017-Mar-20 12:43N 25°59' W 068°26'110.8 23.9
2017-Mar-20 12:40N 25°59' W 068°27'1 3.0 23.9
2017-Mar-20 12:14N 26°01' W 068°28'0 0.0 23.9
2017-Mar-20 11:22N 26°01' W 068°28'1 2.8 23.9
2017-Mar-20 11:05N 26°01' W 068°28'1 3.6 23.9
2017-Mar-20 10:56N 26°01' W 068°29'0 0.0 23.9
2017-Mar-20 10:35N 26°01' W 068°29'0 0.0 23.9
2017-Mar-20 10:31N 26°01' W 068°29'1 1.6 23.9
2017-Mar-20 09:44N 26°02' W 068°30'1 4.0 23.9
2017-Mar-20 09:36N 26°02' W 068°31'1 1.1 23.9
2017-Mar-20 09:06N 26°02' W 068°30'0 0.0 23.9
2017-Mar-20 09:04N 26°02' W 068°30'1 5.4 23.9
2017-Mar-20 08:58N 26°02' W 068°31'1 5.4 23.9
2017-Mar-20 08:52N 26°02' W 068°30'2 1.7 23.9
2017-Mar-20 07:32N 26°02' W 068°32'0 0.0 23.9
2017-Mar-20 07:27N 26°02' W 068°32'432.3 23.9
2017-Mar-20 07:20N 26°02' W 068°37'0 0.0 23.9
2017-Mar-20 02:36N 26°02' W 068°37'0 0.0 24.2
2017-Mar-20 02:30N 26°02' W 068°37'1 0.8 24.2
2017-Mar-20 01:50N 26°02' W 068°37'0 0.0 24.3
2017-Mar-20 01:42N 26°02' W 068°37'0 0.0 24.3
2017-Mar-20 00:52N 26°02' W 068°37'112.0 24.3
2017-Mar-20 00:49N 26°02' W 068°37'0 0.0 24.3
2017-Mar-20 00:17N 26°02' W 068°37'0 0.0 24.3
2017-Mar-20 00:14N 26°02' W 068°37'1 0.7 24.3
2017-Mar-19 23:29N 26°02' W 068°38'0 0.0 24.4
2017-Mar-19 23:21N 26°02' W 068°38'0 0.0 24.4
2017-Mar-19 23:03N 26°02' W 068°38'1 1.9 24.4
2017-Mar-19 22:37N 26°02' W 068°38'0 0.0
2017-Mar-19 22:35N 26°02' W 068°38'0 0.0 24.5
2017-Mar-19 22:31N 26°02' W 068°38'1 0.9 24.5
2017-Mar-19 21:49N 26°02' W 068°38'1 1.3 24.7
2017-Mar-19 21:22N 26°02' W 068°38'0 0.0 24.8
2017-Mar-19 21:13N 26°02' W 068°38'1 1.0 24.8
2017-Mar-19 20:37N 26°02' W 068°38'1 0.4 24.8
2017-Mar-19 18:59N 26°02' W 068°38'1 4.6 24.4
2017-Mar-19 18:52N 26°02' W 068°39'1 0.8 24.4
2017-Mar-19 17:16N 26°04' W 068°40'0 0.0 24.1
2017-Mar-19 16:12N 26°04' W 068°40'0 0.0 24.0
2017-Mar-19 15:21N 26°04' W 068°40'1 8.1 23.7
2017-Mar-19 15:17N 26°04' W 068°39'0 0.0 23.7
2017-Mar-19 14:34N 26°04' W 068°39'1 6.5 23.9
2017-Mar-19 14:29N 26°04' W 068°40'1 0.6 23.9
2017-Mar-19 13:37N 26°04' W 068°40'1 1.2 23.8
2017-Mar-19 12:56N 26°04' W 068°41'1 6.5 23.8
2017-Mar-19 12:51N 26°04' W 068°40'1 0.5 23.9
2017-Mar-19 11:48N 26°04' W 068°41'1 1.2 23.8
2017-Mar-19 11:21N 26°04' W 068°41'0 0.0 23.8
2017-Mar-19 11:16N 26°04' W 068°41'1 3.3 23.8
2017-Mar-19 11:05N 26°05' W 068°41'1 0.5 23.8
2017-Mar-19 10:06N 26°05' W 068°42'0 0.0 23.9
2017-Mar-19 09:30N 26°05' W 068°42'0 0.0 23.9
2017-Mar-19 09:21N 26°05' W 068°42'132.3
2017-Mar-19 09:20N 26°05' W 068°41'110.8 23.8
2017-Mar-19 09:17N 26°05' W 068°41'1 0.7 23.8
2017-Mar-19 07:45N 26°05' W 068°42'0 0.0 23.9
2017-Mar-19 07:38N 26°05' W 068°42'0 0.0 23.9
2017-Mar-19 07:32N 26°05' W 068°42'   23.9

Dump ship's entire track history